createdAt,value
2023-06-17T00:02:16.648Z,16.67
2023-06-17T00:04:48.606Z,16.71
2023-06-17T00:07:20.371Z,16.63
2023-06-17T00:09:51.955Z,16.66
2023-06-17T00:12:25.516Z,16.75
2023-06-17T00:14:58.394Z,16.72
2023-06-17T00:17:33.564Z,16.95
2023-06-17T00:20:13.383Z,16.86
2023-06-17T00:22:45.845Z,16.88
2023-06-17T00:25:17.530Z,16.83
2023-06-17T00:27:49.129Z,16.91
2023-06-17T00:30:20.999Z,16.88
2023-06-17T00:32:52.973Z,16.85
2023-06-17T00:35:24.588Z,16.72
2023-06-17T00:37:56.198Z,16.60
2023-06-17T00:40:28.142Z,16.55
2023-06-17T00:43:00.175Z,16.34
2023-06-17T00:45:39.739Z,16.21
2023-06-17T00:48:12.363Z,16.34
2023-06-17T00:50:46.571Z,16.27
2023-06-17T00:53:18.556Z,16.25
2023-06-17T00:55:51.011Z,16.13
2023-06-17T00:58:23.650Z,16.26
2023-06-17T01:00:55.365Z,16.16
2023-06-17T01:03:27.088Z,16.02
2023-06-17T01:06:04.483Z,16.01
2023-06-17T01:08:45.725Z,15.77
2023-06-17T01:11:21.355Z,15.77
2023-06-17T01:13:57.326Z,15.70
2023-06-17T01:16:33.199Z,15.73
2023-06-17T01:19:07.049Z,15.58
2023-06-17T01:21:39.769Z,15.47
2023-06-17T01:24:14.136Z,15.49
2023-06-17T01:26:45.746Z,15.54
2023-06-17T01:29:17.487Z,15.39
2023-06-17T01:31:50.807Z,15.31
2023-06-17T01:34:45.470Z,15.15
2023-06-17T01:37:27.235Z,15.40
2023-06-17T01:40:01.890Z,15.54
2023-06-17T01:42:37.765Z,15.54
2023-06-17T01:45:10.566Z,15.54
2023-06-17T01:47:43.333Z,15.28
2023-06-17T01:50:20.281Z,15.48
2023-06-17T01:52:52.616Z,15.29
2023-06-17T01:55:24.300Z,15.21
2023-06-17T01:57:55.998Z,15.24
2023-06-17T02:00:27.793Z,15.68
2023-06-17T02:02:59.543Z,15.38
2023-06-17T02:05:31.187Z,15.23
2023-06-17T02:08:05.758Z,15.60
2023-06-17T02:10:37.362Z,15.36
2023-06-17T02:13:11.718Z,15.28
2023-06-17T02:15:44.102Z,15.39
2023-06-17T02:18:15.860Z,15.51
2023-06-17T02:20:47.817Z,15.46
2023-06-17T02:23:19.703Z,15.54
2023-06-17T02:25:52.076Z,15.44
2023-06-17T02:28:23.720Z,16.52
2023-06-17T02:30:55.915Z,17.53
2023-06-17T02:33:27.674Z,17.01
2023-06-17T02:35:59.263Z,15.62
2023-06-17T02:38:31.304Z,15.51
2023-06-17T02:41:02.875Z,15.94
2023-06-17T02:43:34.522Z,15.52
2023-06-17T02:46:06.372Z,15.37
2023-06-17T02:48:38.044Z,15.43
2023-06-17T02:51:10.568Z,15.51
2023-06-17T02:53:42.313Z,15.39
2023-06-17T02:56:13.943Z,15.50
2023-06-17T02:58:46.863Z,15.55
2023-06-17T03:01:19.354Z,15.51
2023-06-17T03:03:56.123Z,15.38
2023-06-17T03:06:27.895Z,15.43
2023-06-17T03:08:59.509Z,15.37
2023-06-17T03:11:31.299Z,15.32
2023-06-17T03:14:03.960Z,15.25
2023-06-17T03:16:35.952Z,15.21
2023-06-17T03:19:08.034Z,15.35
2023-06-17T03:21:42.185Z,15.24
2023-06-17T03:24:13.860Z,15.32
2023-06-17T03:26:46.364Z,15.37
2023-06-17T03:29:18.043Z,15.41
2023-06-17T03:31:49.728Z,15.51
2023-06-17T03:34:21.707Z,15.61
2023-06-17T03:36:53.799Z,15.50
2023-06-17T03:39:25.464Z,15.46
2023-06-17T03:41:57.103Z,15.38
2023-06-17T03:44:28.745Z,15.26
2023-06-17T03:47:00.971Z,15.27
2023-06-17T03:49:32.712Z,15.40
2023-06-17T03:52:04.793Z,15.43
2023-06-17T03:54:36.475Z,15.44
2023-06-17T03:57:08.154Z,15.51
2023-06-17T03:59:39.815Z,15.62
2023-06-17T04:02:12.593Z,15.64
2023-06-17T04:04:44.504Z,15.82
2023-06-17T04:07:16.252Z,15.71
2023-06-17T04:09:57.993Z,15.87
2023-06-17T04:12:38.942Z,15.92
2023-06-17T04:15:10.719Z,16.02
2023-06-17T04:17:42.403Z,15.85
2023-06-17T04:20:14.153Z,16.10
2023-06-17T04:22:46.025Z,16.22
2023-06-17T04:25:21.854Z,16.35
2023-06-17T04:27:54.854Z,16.42
2023-06-17T04:30:26.650Z,16.43
2023-06-17T04:33:01.344Z,16.56
2023-06-17T04:35:33.169Z,16.74
2023-06-17T04:38:05.492Z,16.86
2023-06-17T04:40:37.952Z,16.84
2023-06-17T04:43:11.008Z,17.19
2023-06-17T04:45:43.032Z,17.15
2023-06-17T04:48:15.697Z,17.21
2023-06-17T04:50:48.982Z,17.53
2023-06-17T04:53:20.567Z,17.90
2023-06-17T04:55:52.588Z,17.68
2023-06-17T04:58:24.231Z,18.04
2023-06-17T05:00:55.831Z,18.29
2023-06-17T05:03:27.472Z,18.23
2023-06-17T05:05:59.061Z,18.31
2023-06-17T05:08:30.683Z,18.54
2023-06-17T05:11:02.234Z,18.73
2023-06-17T05:13:33.839Z,18.92
2023-06-17T05:16:05.871Z,19.04
2023-06-17T05:18:37.452Z,18.65
2023-06-17T05:21:09.230Z,18.57
2023-06-17T05:23:40.846Z,18.67
2023-06-17T05:26:12.508Z,18.91
2023-06-17T05:28:44.640Z,19.36
2023-06-17T05:31:16.464Z,19.51
2023-06-17T05:33:48.158Z,19.52
2023-06-17T05:36:19.816Z,19.51
2023-06-17T05:38:51.964Z,19.69
2023-06-17T05:41:23.578Z,19.75
2023-06-17T05:43:55.202Z,19.96
2023-06-17T05:46:26.830Z,20.25
2023-06-17T05:48:58.575Z,20.20
2023-06-17T05:51:30.216Z,20.59
2023-06-17T05:54:01.891Z,20.62
2023-06-17T05:56:33.653Z,20.70
2023-06-17T05:59:05.236Z,20.84
2023-06-17T06:01:36.875Z,21.01
2023-06-17T06:04:08.612Z,21.20
2023-06-17T06:06:40.293Z,21.33
2023-06-17T06:09:12.188Z,20.55
2023-06-17T06:11:43.835Z,21.32
2023-06-17T06:14:18.806Z,21.67
2023-06-17T06:16:51.184Z,21.44
2023-06-17T06:19:22.871Z,21.90
2023-06-17T06:21:54.509Z,21.73
2023-06-17T06:24:26.117Z,21.92
2023-06-17T06:26:57.926Z,22.19
2023-06-17T06:29:29.481Z,22.52
2023-06-17T06:32:01.892Z,22.87
2023-06-17T06:34:34.081Z,23.10
2023-06-17T06:37:06.157Z,23.00
2023-06-17T06:39:37.729Z,23.13
2023-06-17T06:42:09.757Z,23.56
2023-06-17T06:44:41.362Z,23.62
2023-06-17T06:47:12.971Z,24.01
2023-06-17T06:49:44.724Z,24.11
2023-06-17T06:52:16.495Z,23.89
2023-06-17T06:54:48.226Z,23.57
2023-06-17T06:57:19.939Z,23.75
2023-06-17T06:59:52.740Z,24.13
2023-06-17T07:02:24.469Z,24.10
2023-06-17T07:04:56.200Z,24.79
2023-06-17T07:07:27.940Z,24.93
2023-06-17T07:09:59.890Z,25.20
2023-06-17T07:12:31.688Z,25.60
2023-06-17T07:15:03.699Z,25.77
2023-06-17T07:17:35.309Z,26.37
2023-06-17T07:20:07.731Z,27.74
2023-06-17T07:22:39.366Z,30.08
2023-06-17T07:25:11.085Z,32.26
2023-06-17T07:27:42.790Z,34.11
2023-06-17T07:30:14.623Z,34.43
2023-06-17T07:32:46.372Z,35.21
2023-06-17T07:35:18.572Z,36.20
2023-06-17T07:37:53.118Z,36.43
2023-06-17T07:40:24.728Z,34.05
2023-06-17T07:42:56.505Z,35.10
2023-06-17T07:45:28.310Z,34.10
2023-06-17T07:48:00.265Z,36.68
2023-06-17T07:50:31.920Z,35.57
2023-06-17T07:53:03.583Z,35.01
2023-06-17T07:55:35.439Z,35.85
2023-06-17T07:58:07.113Z,35.71
2023-06-17T08:00:38.820Z,33.46
2023-06-17T08:03:10.795Z,33.64
2023-06-17T08:05:42.514Z,34.71
2023-06-17T08:08:14.147Z,35.46
2023-06-17T08:10:46.029Z,35.54
2023-06-17T08:13:17.786Z,36.34
2023-06-17T08:15:51.111Z,36.03
2023-06-17T08:18:22.852Z,35.73
2023-06-17T08:20:54.532Z,36.26
2023-06-17T08:23:26.137Z,32.79
2023-06-17T08:25:58.046Z,34.63
2023-06-17T08:28:29.676Z,35.66
2023-06-17T08:31:01.532Z,35.03
2023-06-17T08:33:33.797Z,34.70
2023-06-17T08:36:05.802Z,32.39
2023-06-17T08:38:37.983Z,32.05
2023-06-17T08:41:09.570Z,34.55
2023-06-17T08:43:42.401Z,34.75
2023-06-17T08:46:15.546Z,36.11
2023-06-17T08:48:49.834Z,35.95
2023-06-17T08:51:21.771Z,34.53
2023-06-17T08:53:53.661Z,33.57
2023-06-17T08:56:25.480Z,34.23
2023-06-17T08:58:57.881Z,33.12
2023-06-17T09:01:30.069Z,34.71
2023-06-17T09:04:02.581Z,33.70
2023-06-17T09:06:34.237Z,33.77
2023-06-17T09:09:06.597Z,34.63
2023-06-17T09:11:38.278Z,33.50
2023-06-17T09:14:10.037Z,33.25
2023-06-17T09:16:41.909Z,33.84
2023-06-17T09:19:14.874Z,33.23
2023-06-17T09:21:49.771Z,33.94
2023-06-17T09:24:31.131Z,32.41
2023-06-17T09:27:02.972Z,34.15
2023-06-17T09:29:37.797Z,35.05
2023-06-17T09:32:09.621Z,34.72
2023-06-17T09:34:49.266Z,34.28
2023-06-17T09:37:21.696Z,32.17
2023-06-17T09:39:53.410Z,33.56
2023-06-17T09:42:31.456Z,32.76
2023-06-17T09:45:08.610Z,33.11
2023-06-17T09:47:40.716Z,29.70
2023-06-17T09:50:13.183Z,31.19
2023-06-17T09:52:45.045Z,32.06
2023-06-17T09:55:16.965Z,31.90
2023-06-17T09:57:54.786Z,33.94
2023-06-17T10:00:28.421Z,33.92
2023-06-17T10:03:00.313Z,33.30
2023-06-17T10:05:32.072Z,34.53
2023-06-17T10:08:05.346Z,34.28
2023-06-17T10:10:37.786Z,33.18
2023-06-17T10:13:10.810Z,33.27
2023-06-17T10:15:42.909Z,33.08
2023-06-17T10:18:16.352Z,32.98
2023-06-17T10:20:51.916Z,32.89
2023-06-17T10:23:24.738Z,32.08
2023-06-17T10:25:56.421Z,32.74
2023-06-17T10:29:11.641Z,32.89
2023-06-17T10:31:44.458Z,31.36
2023-06-17T10:34:21.005Z,33.08
2023-06-17T10:37:01.959Z,32.01
2023-06-17T10:39:33.634Z,33.09
2023-06-17T10:42:14.389Z,33.66
2023-06-17T10:44:47.127Z,33.66
2023-06-17T10:47:23.783Z,33.87
2023-06-17T10:49:55.998Z,34.24
2023-06-17T10:52:30.359Z,34.23
2023-06-17T10:55:04.228Z,32.78
2023-06-17T10:57:37.312Z,33.66
2023-06-17T11:00:13.524Z,33.33
2023-06-17T11:02:45.253Z,32.76
2023-06-17T11:05:17.991Z,32.23
2023-06-17T11:07:50.436Z,33.08
2023-06-17T11:10:26.079Z,34.27
2023-06-17T11:12:58.505Z,34.61
2023-06-17T11:15:30.230Z,34.94
2023-06-17T11:18:05.593Z,34.61
2023-06-17T11:20:37.235Z,35.13
2023-06-17T11:23:08.831Z,35.20
2023-06-17T11:25:45.608Z,35.87
2023-06-17T11:28:17.779Z,32.83
2023-06-17T11:30:51.090Z,33.93
2023-06-17T11:33:24.607Z,35.82
2023-06-17T11:35:56.375Z,35.25
2023-06-17T11:38:28.250Z,37.15
2023-06-17T11:41:00.583Z,36.21
2023-06-17T11:43:32.831Z,36.17
2023-06-17T11:46:04.811Z,34.24
2023-06-17T11:48:36.887Z,34.12
2023-06-17T11:51:08.871Z,35.76
2023-06-17T11:53:40.630Z,35.71
2023-06-17T11:56:15.392Z,35.52
2023-06-17T11:58:47.371Z,35.59
2023-06-17T12:01:26.023Z,35.06
2023-06-17T12:03:58.076Z,33.94
2023-06-17T12:06:30.060Z,35.32
2023-06-17T12:09:05.378Z,35.74
2023-06-17T12:11:40.639Z,36.17
2023-06-17T12:14:13.976Z,36.75
2023-06-17T12:16:47.992Z,37.74
2023-06-17T12:19:25.426Z,35.17
2023-06-17T12:21:56.996Z,34.38
2023-06-17T12:24:28.772Z,34.99
2023-06-17T12:27:00.538Z,35.96
2023-06-17T12:29:32.265Z,34.17
2023-06-17T12:32:04.561Z,33.52
2023-06-17T12:34:36.283Z,34.37
2023-06-17T12:37:08.857Z,32.97
2023-06-17T12:39:41.274Z,32.15
2023-06-17T12:42:13.525Z,33.98
2023-06-17T12:44:45.970Z,35.82
2023-06-17T12:47:19.551Z,35.87
2023-06-17T12:49:51.339Z,34.45
2023-06-17T12:52:23.228Z,37.07
2023-06-17T12:55:02.488Z,36.09
2023-06-17T12:57:34.518Z,33.36
2023-06-17T13:00:07.580Z,34.75
2023-06-17T13:02:39.381Z,33.68
2023-06-17T13:05:11.432Z,33.30
2023-06-17T13:07:43.062Z,33.64
2023-06-17T13:10:14.618Z,33.50
2023-06-17T13:12:46.324Z,35.42
2023-06-17T13:15:18.252Z,35.42
2023-06-17T13:17:50.392Z,35.14
2023-06-17T13:20:22.928Z,35.23
2023-06-17T13:22:55.195Z,36.28
2023-06-17T13:25:27.577Z,36.71
2023-06-17T13:27:59.459Z,36.39
2023-06-17T13:30:31.040Z,36.88
2023-06-17T13:33:02.863Z,37.09
2023-06-17T13:35:34.622Z,37.73
2023-06-17T13:38:06.474Z,35.66
2023-06-17T13:40:38.100Z,35.17
2023-06-17T13:43:09.835Z,35.92
2023-06-17T13:45:41.581Z,34.48
2023-06-17T13:48:13.618Z,35.32
2023-06-17T13:50:45.301Z,34.94
2023-06-17T13:53:17.007Z,34.82
2023-06-17T13:55:49.801Z,34.65
2023-06-17T13:58:21.401Z,35.53
2023-06-17T14:00:53.625Z,34.59
2023-06-17T14:03:25.544Z,35.77
2023-06-17T14:05:57.464Z,36.13
2023-06-17T14:08:29.185Z,36.94
2023-06-17T14:11:00.885Z,37.78
2023-06-17T14:13:32.497Z,38.69
2023-06-17T14:16:04.205Z,38.10
2023-06-17T14:18:35.863Z,37.66
2023-06-17T14:21:08.044Z,37.05
2023-06-17T14:24:15.480Z,36.56
2023-06-17T14:26:47.151Z,36.01
2023-06-17T14:29:18.720Z,35.86
2023-06-17T14:31:50.319Z,37.84
2023-06-17T14:34:21.913Z,35.75
2023-06-17T14:36:53.608Z,36.08
2023-06-17T14:39:25.180Z,36.65
2023-06-17T14:41:56.952Z,37.48
2023-06-17T14:44:28.759Z,36.17
2023-06-17T14:47:00.456Z,35.94
2023-06-17T14:49:32.046Z,36.98
2023-06-17T14:52:03.903Z,37.26
2023-06-17T14:54:35.799Z,37.62
2023-06-17T14:57:07.780Z,35.30
2023-06-17T14:59:39.612Z,35.34
2023-06-17T15:02:25.572Z,37.16
2023-06-17T15:04:57.448Z,36.90
2023-06-17T15:07:29.084Z,37.61
2023-06-17T15:10:01.397Z,36.58
2023-06-17T15:12:33.448Z,37.28
2023-06-17T15:15:06.533Z,37.89
2023-06-17T15:17:38.545Z,36.09
2023-06-17T15:20:11.311Z,36.84
2023-06-17T15:22:42.968Z,37.69
2023-06-17T15:25:14.657Z,36.85
2023-06-17T15:27:46.455Z,36.64
2023-06-17T15:30:18.413Z,35.75
2023-06-17T15:32:52.849Z,32.31
2023-06-17T15:35:24.944Z,31.65
2023-06-17T15:37:56.979Z,31.37
2023-06-17T15:40:28.669Z,31.39
2023-06-17T15:43:00.340Z,33.42
2023-06-17T15:45:32.082Z,34.72
2023-06-17T15:48:04.034Z,34.85
2023-06-17T15:50:36.212Z,34.52
2023-06-17T15:53:07.788Z,34.43
2023-06-17T15:55:39.581Z,33.70
2023-06-17T15:58:11.194Z,33.65
2023-06-17T16:00:42.778Z,33.15
2023-06-17T16:03:26.395Z,31.97
2023-06-17T16:06:00.004Z,32.09
2023-06-17T16:08:31.771Z,32.22
2023-06-17T16:11:04.754Z,32.03
2023-06-17T16:13:38.610Z,32.15
2023-06-17T16:16:10.365Z,32.12
2023-06-17T16:18:42.044Z,32.17
2023-06-17T16:21:13.730Z,32.07
2023-06-17T16:23:45.380Z,31.60
2023-06-17T16:26:16.954Z,29.87
2023-06-17T16:28:48.635Z,29.33
2023-06-17T16:31:20.515Z,29.30
2023-06-17T16:33:52.108Z,29.29
2023-06-17T16:36:23.817Z,29.67
2023-06-17T16:38:55.711Z,30.23
2023-06-17T16:41:27.391Z,29.79
2023-06-17T16:43:59.031Z,30.52
2023-06-17T16:46:30.752Z,30.79
2023-06-17T16:49:02.519Z,31.65
2023-06-17T16:51:34.271Z,32.28
2023-06-17T16:54:06.762Z,32.14
2023-06-17T16:59:12.001Z,31.76
2023-06-17T17:01:43.815Z,31.12
2023-06-17T17:04:15.544Z,30.73
2023-06-17T17:06:47.155Z,30.05
2023-06-17T17:09:18.735Z,29.91
2023-06-17T17:11:50.378Z,29.55
2023-06-17T17:14:23.338Z,29.71
2023-06-17T17:16:55.072Z,30.21
2023-06-17T17:19:27.483Z,30.24
2023-06-17T17:21:59.057Z,30.08
2023-06-17T17:24:30.900Z,29.92
2023-06-17T17:27:02.686Z,30.42
2023-06-17T17:29:35.411Z,29.96
2023-06-17T17:32:07.443Z,29.61
2023-06-17T17:34:39.317Z,29.53
2023-06-17T17:37:10.953Z,29.48
2023-06-17T17:39:42.593Z,29.38
2023-06-17T17:42:14.817Z,29.33
2023-06-17T17:44:46.456Z,29.62
2023-06-17T17:47:18.182Z,29.70
2023-06-17T17:49:49.970Z,29.76
2023-06-17T17:52:21.966Z,30.09
2023-06-17T17:55:01.802Z,29.36
2023-06-17T17:57:34.740Z,29.38
2023-06-17T18:00:09.071Z,29.31
2023-06-17T18:02:40.890Z,29.15
2023-06-17T18:05:12.632Z,28.66
2023-06-17T18:07:44.309Z,28.65
2023-06-17T18:10:15.965Z,28.12
2023-06-17T18:12:47.665Z,27.95
2023-06-17T18:15:19.286Z,27.55
2023-06-17T18:17:50.986Z,27.51
2023-06-17T18:20:22.948Z,26.98
2023-06-17T18:22:54.700Z,27.10
2023-06-17T18:25:26.329Z,27.24
2023-06-17T18:27:57.908Z,27.25
2023-06-17T18:30:29.624Z,27.01
2023-06-17T18:33:01.734Z,26.74
2023-06-17T18:35:34.272Z,26.82
2023-06-17T18:38:07.926Z,27.06
2023-06-17T18:40:41.024Z,26.65
2023-06-17T18:43:13.789Z,26.88
2023-06-17T18:45:45.740Z,26.86
2023-06-17T18:48:17.415Z,27.14
2023-06-17T18:50:52.233Z,27.21
2023-06-17T18:53:23.985Z,27.04
2023-06-17T18:55:56.138Z,26.89
2023-06-17T18:58:27.805Z,26.84
2023-06-17T19:00:59.750Z,26.83
2023-06-17T19:03:31.977Z,26.93
2023-06-17T19:06:04.542Z,26.92
2023-06-17T19:08:36.277Z,26.74
2023-06-17T19:11:08.237Z,26.95
2023-06-17T19:13:39.949Z,26.76
2023-06-17T19:16:11.813Z,26.65
2023-06-17T19:18:43.618Z,26.74
2023-06-17T19:21:15.838Z,26.70
2023-06-17T19:23:47.559Z,26.50
2023-06-17T19:26:19.214Z,26.60
2023-06-17T19:28:51.982Z,26.60
2023-06-17T19:31:25.979Z,26.45
2023-06-17T19:33:57.609Z,26.20
2023-06-17T19:36:30.157Z,25.97
2023-06-17T19:39:02.037Z,25.70
2023-06-17T19:41:33.813Z,25.41
2023-06-17T19:44:07.707Z,25.07
2023-06-17T19:46:40.411Z,24.54
2023-06-17T19:49:12.046Z,24.37
2023-06-17T19:51:43.752Z,24.26
2023-06-17T19:54:16.483Z,24.11
2023-06-17T19:56:48.613Z,23.90
2023-06-17T19:59:21.363Z,23.58
2023-06-17T20:01:53.086Z,23.57
2023-06-17T20:04:24.807Z,23.24
2023-06-17T20:06:56.913Z,23.17
2023-06-17T20:09:31.657Z,23.02
2023-06-17T20:12:03.631Z,22.94
2023-06-17T20:14:35.770Z,22.83
2023-06-17T20:17:08.678Z,22.82
2023-06-17T20:19:40.547Z,22.73
2023-06-17T20:22:12.165Z,22.66
2023-06-17T20:24:43.814Z,22.57
2023-06-17T20:27:15.587Z,22.53
2023-06-17T20:29:47.939Z,22.32
2023-06-17T20:32:20.527Z,22.29
2023-06-17T20:34:52.479Z,22.32
2023-06-17T20:37:24.124Z,22.26
2023-06-17T20:39:56.052Z,22.13
2023-06-17T20:42:27.890Z,22.16
2023-06-17T20:44:59.571Z,22.15
2023-06-17T20:47:31.564Z,21.94
2023-06-17T20:50:03.940Z,21.81
2023-06-17T20:52:35.954Z,21.90
2023-06-17T20:55:08.398Z,21.70
2023-06-17T20:57:41.022Z,21.57
2023-06-17T21:00:13.778Z,21.56
2023-06-17T21:02:45.884Z,21.58
2023-06-17T21:05:17.707Z,21.49
2023-06-17T21:07:49.402Z,21.27
2023-06-17T21:10:21.288Z,21.42
2023-06-17T21:12:53.273Z,21.44
2023-06-17T21:15:24.966Z,21.41
2023-06-17T21:17:56.797Z,21.27
2023-06-17T21:20:28.426Z,21.19
2023-06-17T21:23:00.880Z,21.19
2023-06-17T21:25:32.475Z,20.99
2023-06-17T21:28:04.284Z,21.05
2023-06-17T21:30:35.920Z,21.06
2023-06-17T21:33:07.640Z,20.97
2023-06-17T21:35:39.339Z,20.77
2023-06-17T21:38:11.206Z,20.80
2023-06-17T21:40:42.765Z,20.70
2023-06-17T21:43:14.494Z,20.79
2023-06-17T21:45:46.202Z,20.65
2023-06-17T21:48:18.154Z,20.85
2023-06-17T21:50:49.831Z,20.71
2023-06-17T21:53:21.449Z,20.64
2023-06-17T21:55:53.181Z,20.46
2023-06-17T21:58:24.810Z,20.49
2023-06-17T22:00:56.424Z,20.35
2023-06-17T22:03:28.130Z,20.34
2023-06-17T22:05:59.938Z,20.13
2023-06-17T22:08:42.204Z,20.20
2023-06-17T22:11:15.600Z,20.20
2023-06-17T22:13:47.351Z,19.91
2023-06-17T22:16:19.387Z,20.03
2023-06-17T22:18:51.636Z,19.87
2023-06-17T22:21:23.841Z,19.82
2023-06-17T22:23:56.599Z,19.83
2023-06-17T22:26:28.814Z,19.79
2023-06-17T22:29:00.468Z,19.87
2023-06-17T22:31:32.096Z,19.96
2023-06-17T22:34:03.704Z,20.01
2023-06-17T22:36:35.721Z,20.02
2023-06-17T22:39:07.279Z,19.99
2023-06-17T22:41:39.012Z,20.03
2023-06-17T22:44:10.700Z,20.01
2023-06-17T22:46:42.394Z,19.83
2023-06-17T22:49:14.096Z,19.82
2023-06-17T22:51:45.740Z,19.80
2023-06-17T22:54:17.545Z,19.89
2023-06-17T22:56:49.210Z,19.92
2023-06-17T22:59:21.226Z,19.96
2023-06-17T23:01:52.931Z,20.02
2023-06-17T23:04:24.573Z,20.04
2023-06-17T23:06:56.136Z,20.11
2023-06-17T23:09:27.757Z,20.22
2023-06-17T23:11:59.389Z,20.33
2023-06-17T23:14:31.180Z,20.37
2023-06-17T23:17:02.875Z,20.48
2023-06-17T23:19:34.490Z,20.44
2023-06-17T23:22:06.339Z,20.56
2023-06-17T23:24:39.041Z,20.41
2023-06-17T23:27:10.989Z,20.57
2023-06-17T23:29:42.616Z,20.72
2023-06-17T23:32:14.238Z,20.80
2023-06-17T23:34:45.845Z,20.87
2023-06-17T23:37:19.116Z,20.91
2023-06-17T23:39:50.828Z,20.98
2023-06-17T23:42:22.375Z,21.09
2023-06-17T23:44:54.093Z,21.16
2023-06-17T23:47:26.031Z,20.94
2023-06-17T23:49:57.700Z,21.11
2023-06-17T23:52:29.259Z,21.19
2023-06-17T23:55:02.452Z,21.12
2023-06-17T23:57:34.333Z,21.02
